createdAt,value
2022-11-22T00:01:59.183Z,6.70
2022-11-22T00:06:07.934Z,6.70
2022-11-22T00:10:35.920Z,6.70
2022-11-22T00:14:44.552Z,6.70
2022-11-22T00:18:54.201Z,6.80
2022-11-22T00:23:02.728Z,6.80
2022-11-22T00:27:11.458Z,6.80
2022-11-22T00:31:19.985Z,6.80
2022-11-22T00:35:28.521Z,6.80
2022-11-22T00:39:37.244Z,6.80
2022-11-22T00:43:45.878Z,6.80
2022-11-22T00:47:54.505Z,6.80
2022-11-22T00:52:03.073Z,6.80
2022-11-22T00:56:11.613Z,6.80
2022-11-22T01:00:20.609Z,6.80
2022-11-22T01:04:29.165Z,6.80
2022-11-22T01:08:37.720Z,6.80
2022-11-22T01:12:46.284Z,6.80
2022-11-22T01:16:54.822Z,6.80
2022-11-22T01:21:03.929Z,6.80
2022-11-22T01:25:31.922Z,6.80
2022-11-22T01:29:40.552Z,6.80
2022-11-22T01:33:49.075Z,6.80
2022-11-22T01:38:17.029Z,6.80
2022-11-22T01:42:28.077Z,6.80
2022-11-22T01:46:57.435Z,6.80
2022-11-22T01:51:12.000Z,6.80
2022-11-22T01:55:20.983Z,6.90
2022-11-22T01:59:33.142Z,6.80
2022-11-22T02:03:44.798Z,6.80
2022-11-22T02:07:56.425Z,6.80
2022-11-22T02:12:07.333Z,6.80
2022-11-22T02:16:15.993Z,6.80
2022-11-22T02:20:24.957Z,6.70
2022-11-22T02:24:42.866Z,6.70
2022-11-22T02:28:53.159Z,6.60
2022-11-22T02:33:01.705Z,6.50
2022-11-22T02:37:11.531Z,6.50
2022-11-22T02:41:20.454Z,6.40
2022-11-22T02:45:29.594Z,6.40
2022-11-22T02:49:38.120Z,6.40
2022-11-22T02:53:53.507Z,6.30
2022-11-22T02:58:02.237Z,6.30
2022-11-22T03:02:10.837Z,6.20
2022-11-22T03:06:19.398Z,6.10
2022-11-22T03:10:28.049Z,6.10
2022-11-22T03:14:36.666Z,6.10
2022-11-22T03:18:45.178Z,6.00
2022-11-22T03:22:54.011Z,6.00
2022-11-22T03:27:02.483Z,6.00
2022-11-22T03:31:11.165Z,5.90
2022-11-22T03:35:19.794Z,5.90
2022-11-22T03:39:28.542Z,5.90
2022-11-22T03:43:37.358Z,5.90
2022-11-22T03:48:05.443Z,5.90
2022-11-22T03:52:14.174Z,5.90
2022-11-22T03:56:23.011Z,5.90
2022-11-22T04:00:32.405Z,5.90
2022-11-22T04:04:40.947Z,5.90
2022-11-22T04:08:49.732Z,5.90
2022-11-22T04:12:59.361Z,5.90
2022-11-22T04:17:07.995Z,6.00
2022-11-22T04:21:34.359Z,5.90
2022-11-22T04:25:46.156Z,5.90
2022-11-22T04:30:20.128Z,5.90
2022-11-22T04:34:24.809Z,5.80
2022-11-22T04:38:33.430Z,5.80
2022-11-22T04:43:19.235Z,5.80
2022-11-22T04:47:50.146Z,5.70
2022-11-22T04:52:14.478Z,5.70
2022-11-22T04:56:42.315Z,5.70
2022-11-22T05:00:51.343Z,5.60
2022-11-22T05:04:59.892Z,5.70
2022-11-22T05:09:08.447Z,5.60
2022-11-22T05:13:18.709Z,5.60
2022-11-22T05:17:29.203Z,5.60
2022-11-22T05:21:38.741Z,5.50
2022-11-22T05:25:47.366Z,5.40
2022-11-22T05:29:56.098Z,5.40
2022-11-22T05:34:05.445Z,5.30
2022-11-22T05:38:13.945Z,5.30
2022-11-22T05:42:22.698Z,5.20
2022-11-22T05:46:31.738Z,5.20
2022-11-22T05:50:40.279Z,5.20
2022-11-22T05:54:48.860Z,5.20
2022-11-22T05:58:57.524Z,5.20
2022-11-22T06:03:06.150Z,5.10
2022-11-22T06:07:14.661Z,5.10
2022-11-22T06:11:25.470Z,5.10
2022-11-22T06:15:34.024Z,5.20
2022-11-22T06:19:42.819Z,5.20
2022-11-22T06:23:52.287Z,5.20
2022-11-22T06:28:01.409Z,5.10
2022-11-22T06:32:17.510Z,5.10
2022-11-22T06:36:28.512Z,5.10
2022-11-22T06:40:37.057Z,5.10
2022-11-22T06:44:56.511Z,5.10
2022-11-22T06:49:05.438Z,5.10
2022-11-22T06:53:45.689Z,5.10
2022-11-22T06:57:34.620Z,5.00
2022-11-22T07:01:43.316Z,5.00
2022-11-22T07:05:52.348Z,5.00
2022-11-22T07:10:00.972Z,4.90
2022-11-22T07:14:09.756Z,5.00
2022-11-22T07:18:29.588Z,5.00
2022-11-22T07:22:38.223Z,4.90
2022-11-22T07:26:46.766Z,5.00
2022-11-22T07:31:00.674Z,4.90
2022-11-22T07:35:29.747Z,4.90
2022-11-22T07:39:38.982Z,4.90
2022-11-22T07:43:48.213Z,4.90
2022-11-22T07:47:58.359Z,4.90
2022-11-22T07:52:07.809Z,4.90
2022-11-22T07:56:17.468Z,4.90
2022-11-22T08:00:26.065Z,4.90
2022-11-22T08:04:34.562Z,5.00
2022-11-22T08:08:44.324Z,4.90
2022-11-22T08:12:52.974Z,5.00
2022-11-22T08:17:01.598Z,5.00
2022-11-22T08:21:14.561Z,5.10
2022-11-22T08:25:42.447Z,5.20
2022-11-22T08:29:51.169Z,5.30
2022-11-22T08:34:19.150Z,5.30
2022-11-22T08:38:28.190Z,5.40
2022-11-22T08:42:36.819Z,5.50
2022-11-22T08:46:45.549Z,5.60
2022-11-22T08:51:00.422Z,5.60
2022-11-22T08:55:29.329Z,5.70
2022-11-22T08:59:38.002Z,5.80
2022-11-22T09:03:46.977Z,5.90
2022-11-22T09:12:06.521Z,6.10
2022-11-22T09:16:18.699Z,6.10
2022-11-22T09:20:27.345Z,6.20
2022-11-22T09:24:36.211Z,6.30
2022-11-22T09:28:45.440Z,6.30
2022-11-22T09:32:54.051Z,6.40
2022-11-22T09:37:03.155Z,6.50
2022-11-22T09:41:17.868Z,6.60
2022-11-22T09:45:35.788Z,6.60
2022-11-22T09:50:10.035Z,6.60
2022-11-22T09:54:45.392Z,6.70
2022-11-22T09:59:05.689Z,6.80
2022-11-22T10:03:44.421Z,6.80
2022-11-22T10:08:04.947Z,6.80
2022-11-22T10:12:36.504Z,6.80
2022-11-22T10:17:00.037Z,6.80
2022-11-22T10:21:12.036Z,6.80
2022-11-22T10:25:26.006Z,6.90
2022-11-22T10:29:40.637Z,7.00
2022-11-22T10:34:12.178Z,7.20
2022-11-22T10:38:42.415Z,7.30
2022-11-22T10:43:10.242Z,7.40
2022-11-22T10:47:41.859Z,7.40
2022-11-22T10:51:59.509Z,7.40
2022-11-22T10:56:14.040Z,7.40
2022-11-22T11:00:27.487Z,7.40
2022-11-22T11:04:38.808Z,7.40
2022-11-22T11:09:47.737Z,7.40
2022-11-22T11:13:09.266Z,7.40
2022-11-22T11:17:21.069Z,7.50
2022-11-22T11:21:29.717Z,7.50
2022-11-22T11:25:43.667Z,7.50
2022-11-22T11:30:02.111Z,7.40
2022-11-22T11:34:22.753Z,7.40
2022-11-22T11:38:40.212Z,7.50
2022-11-22T11:42:48.888Z,7.50
2022-11-22T11:46:57.453Z,7.50
2022-11-22T11:51:20.693Z,7.70
2022-11-22T11:55:36.898Z,7.80
2022-11-22T11:59:49.653Z,7.90
2022-11-22T12:04:01.525Z,8.00
2022-11-22T12:13:06.395Z,8.10
2022-11-22T12:17:18.404Z,8.20
2022-11-22T12:21:50.586Z,8.20
2022-11-22T12:25:59.813Z,8.20
2022-11-22T12:30:11.738Z,8.30
2022-11-22T12:34:33.224Z,8.30
2022-11-22T12:38:45.151Z,8.40
2022-11-22T12:42:59.735Z,8.40
2022-11-22T12:47:13.074Z,8.40
2022-11-22T12:51:30.142Z,8.50
2022-11-22T12:55:41.794Z,8.40
2022-11-22T12:59:53.501Z,8.40
2022-11-22T13:04:13.942Z,8.30
2022-11-22T13:08:31.442Z,8.30
2022-11-22T13:12:42.937Z,8.30
2022-11-22T13:16:51.976Z,8.30
2022-11-22T13:21:26.309Z,8.30
2022-11-22T13:25:55.827Z,8.30
2022-11-22T13:30:05.516Z,8.30
2022-11-22T13:34:19.850Z,8.30
2022-11-22T13:38:47.809Z,8.30
2022-11-22T13:43:22.388Z,8.30
2022-11-22T13:47:31.022Z,8.30
2022-11-22T13:51:57.720Z,8.30
2022-11-22T13:56:24.413Z,8.20
2022-11-22T14:00:38.884Z,8.20
2022-11-22T14:04:49.030Z,8.10
2022-11-22T14:09:30.011Z,8.20
2022-11-22T14:13:46.209Z,8.10
2022-11-22T14:18:19.961Z,8.10
2022-11-22T14:22:46.652Z,8.10
2022-11-22T14:27:18.871Z,8.10
2022-11-22T14:31:33.951Z,8.10
2022-11-22T14:36:02.238Z,8.10
2022-11-22T14:40:28.739Z,8.20
2022-11-22T14:44:37.373Z,8.20
2022-11-22T14:49:13.006Z,8.20
2022-11-22T14:53:27.577Z,8.20
2022-11-22T14:57:37.810Z,8.20
2022-11-22T15:02:08.817Z,8.10
2022-11-22T15:09:21.190Z,8.10
2022-11-22T15:10:42.288Z,8.10
2022-11-22T15:21:00.612Z,8.10
2022-11-22T15:57:55.944Z,7.80
2022-11-22T16:02:04.936Z,7.80
2022-11-22T16:06:19.845Z,7.80
2022-11-22T16:10:49.362Z,7.80
2022-11-22T16:14:58.316Z,7.90
2022-11-22T16:19:25.267Z,7.90
2022-11-22T16:23:46.291Z,7.90
2022-11-22T16:27:54.891Z,7.80
2022-11-22T16:32:15.220Z,7.80
2022-11-22T16:36:26.067Z,7.70
2022-11-22T16:40:42.725Z,7.70
2022-11-22T16:44:52.489Z,7.60
2022-11-22T16:49:01.059Z,7.60
2022-11-22T16:53:15.443Z,7.50
2022-11-22T16:57:24.342Z,7.50
2022-11-22T17:01:34.137Z,7.50
2022-11-22T17:05:42.825Z,7.50
2022-11-22T17:09:52.986Z,7.50
2022-11-22T17:14:02.039Z,7.50
2022-11-22T17:18:10.665Z,7.50
2022-11-22T17:22:19.976Z,7.50
2022-11-22T17:26:29.475Z,7.50
2022-11-22T17:30:39.046Z,7.40
2022-11-22T17:34:47.573Z,7.40
2022-11-22T17:38:56.716Z,7.40
2022-11-22T17:43:05.346Z,7.40
2022-11-22T17:47:13.977Z,7.40
2022-11-22T17:51:24.338Z,7.50
2022-11-22T17:55:48.444Z,7.50
2022-11-22T17:59:44.982Z,7.50
2022-11-22T18:03:53.594Z,7.50
2022-11-22T18:08:02.291Z,7.50
2022-11-22T18:12:11.044Z,7.50
2022-11-22T18:16:19.631Z,7.50
2022-11-22T18:20:48.508Z,7.50
2022-11-22T18:24:57.231Z,7.50
2022-11-22T18:33:17.048Z,7.50
2022-11-22T18:37:25.687Z,7.50
2022-11-22T18:41:34.305Z,7.50
2022-11-22T18:45:42.936Z,7.60
2022-11-22T18:49:51.533Z,7.60
2022-11-22T18:54:00.399Z,7.50
2022-11-22T18:58:08.903Z,7.50
2022-11-22T19:02:36.816Z,7.50
2022-11-22T19:06:46.476Z,7.50
2022-11-22T19:10:58.662Z,7.50
2022-11-22T19:15:08.517Z,7.50
2022-11-22T19:19:17.260Z,7.60
2022-11-22T19:23:25.884Z,7.60
2022-11-22T19:27:34.368Z,7.60
2022-11-22T19:31:43.451Z,7.60
2022-11-22T19:35:59.645Z,7.60
2022-11-22T19:40:11.012Z,7.60
2022-11-22T19:44:19.678Z,7.60
2022-11-22T19:48:28.776Z,7.60
2022-11-22T19:52:37.346Z,7.60
2022-11-22T19:56:46.078Z,7.60
2022-11-22T20:00:54.736Z,7.60
2022-11-22T20:05:03.437Z,7.60
2022-11-22T20:09:13.570Z,7.60
2022-11-22T20:13:22.174Z,7.60
2022-11-22T20:17:34.031Z,7.60
2022-11-22T20:22:03.044Z,7.60
2022-11-22T20:26:15.727Z,7.60
2022-11-22T20:30:24.288Z,7.60
2022-11-22T20:34:35.991Z,7.60
2022-11-22T20:38:45.482Z,7.60
2022-11-22T20:42:54.067Z,7.70
2022-11-22T20:47:02.799Z,7.70
2022-11-22T20:51:13.913Z,7.70
2022-11-22T20:55:22.512Z,7.60
2022-11-22T20:59:31.141Z,7.70
2022-11-22T21:03:39.786Z,7.70
2022-11-22T21:07:48.441Z,7.70
2022-11-22T21:11:57.393Z,7.70
2022-11-22T21:16:21.881Z,7.70
2022-11-22T21:20:19.200Z,7.70
2022-11-22T21:24:27.909Z,7.70
2022-11-22T21:28:39.570Z,7.70
2022-11-22T21:32:48.260Z,7.70
2022-11-22T21:36:56.837Z,7.70
2022-11-22T21:41:32.229Z,7.70
2022-11-22T21:45:36.880Z,7.70
2022-11-22T21:49:47.146Z,7.70
2022-11-22T21:53:59.461Z,7.70
2022-11-22T21:58:08.404Z,7.70
2022-11-22T22:02:16.924Z,7.80
2022-11-22T22:06:25.658Z,7.80
2022-11-22T22:10:34.479Z,7.80
2022-11-22T22:14:43.100Z,7.80
2022-11-22T22:18:52.177Z,7.80
2022-11-22T22:23:00.785Z,7.80
2022-11-22T22:27:09.719Z,7.80
2022-11-22T22:31:23.628Z,7.80
2022-11-22T22:35:32.193Z,7.80
2022-11-22T22:39:51.881Z,7.80
2022-11-22T22:44:19.869Z,7.80
2022-11-22T22:48:48.692Z,7.80
2022-11-22T22:52:57.230Z,7.80
2022-11-22T22:57:05.927Z,7.80
2022-11-22T23:01:17.594Z,7.80
2022-11-22T23:05:26.567Z,7.80
2022-11-22T23:09:35.073Z,7.80
2022-11-22T23:13:44.245Z,7.80
2022-11-22T23:17:53.884Z,7.80
2022-11-22T23:22:02.860Z,7.80
2022-11-22T23:26:13.327Z,7.80
2022-11-22T23:30:21.921Z,7.80
2022-11-22T23:34:31.387Z,7.80
2022-11-22T23:38:40.310Z,7.80
2022-11-22T23:42:48.933Z,7.90
2022-11-22T23:46:57.562Z,7.90
2022-11-22T23:51:06.293Z,7.90
2022-11-22T23:55:14.922Z,7.90
2022-11-22T23:59:23.674Z,7.90
